< < Back
Terminal Aerodrome Forecast


Current Version              Previous Versions:   1  2  3  4  5  6  7  8  9  

Terminal Aerodrome Forecast

218
FTUS42 KFFC 291732
TAFCSG
TAF
KCSG 291732Z 2918/3018 13005KT P6SM FEW100
     FM292300 VRB03KT P6SM FEW050
     FM300700 VRB03KT P6SM BKN035
     FM301200 22006KT P6SM BKN015
     FM301400 23008KT 5SM -RA BR SCT008 OVC012=

Latest METAR

484
SAUS70 KWBC 292200 RRA
MTRCSG
METAR KCSG 292151Z AUTO 22006KT 10SM OVC060 17/M03 A3026 RMK AO2 SLP247
T01721028 TSNO


USA.gov is the U.S. government's official web portal to all federal, state and local government web resources and services.